Tiempo atmosférico en la estación meteorológica de Alcázar Del Rey, Cuenca (875 m.)



Fecha
DESCASC
Temp. máxima en grados centígrados (hora)
DESCASC
Temp. mínima en grados centígrados (hora)
DESCASC
Temp. media en grados centígrados
DESCASC
Racha de viento máxima en m/sg (hora)
DESCASC
Velocidad máxima media en intervalos de 10 minutos(hora)
DESCASC
Precipitaciones diarias en mm
DESCASC
Precipitaciones de 00:00 a 06:00 en mm
DESCASC
Precipitaciones de 06:00 a 12:00 en mm
DESCASC
Precipitaciones de 12:00 a 18:00 en mm
DESCASC
Precipitaciones de 18:00 a 24:00 en mm
DESCASC
24-09-2020 20.2 (12:50) 13.8 (04:30) 17 14.17 (18:20) 6.39 (13:40) 1.8 0 0 1.8 0
23-09-2020 22.7 (17:10) 13.9 (00:00) 18.3 10.56 (15:00) 5.83 (14:30) 2 0 2 0 0
22-09-2020 23.8 (17:20) 9.3 (00:00) 16.5 12.5 (17:50) 4.72 (17:50) 0 0 0 0 0
21-09-2020 23.7 (17:20) 10.4 (00:00) 17.1 8.61 (14:10) 3.89 (14:10) 0 0 0 0 0
20-09-2020 20.6 (16:10) 13.7 (00:00) 17.2 7.78 (16:30) 3.89 (18:10) 0 0 0 0 0
19-09-2020 21.8 (17:40) 13.2 (00:00) 17.5 11.67 (13:30) 5.83 (15:10) 0.4 0.4 0 0 0
18-09-2020 20.4 (16:00) 14.8 (00:00) 17.6 10.83 (09:20) 6.39 (03:40) 7.2 0 0 4.6 2.6
17-09-2020 26.3 (17:20) 17.5 (00:00) 21.9 13.33 (21:40) 6.94 (02:00) 3.4 0 0 0 3.4
16-09-2020 30 (15:50) 15 (00:00) 22.5 7.78 (22:30) 4.17 (18:30) 0 0 0 0 0
15-09-2020 29 (17:20) 17 (00:00) 23 10 (03:30) 5.28 (02:30) 0 0 0 0 0
14-09-2020 28.7 (17:20) 15.1 (00:00) 21.9 11.94 (11:00) 7.22 (11:40) 0 0 0 0 0
13-09-2020 30.9 (16:50) 16.7 (00:00) 23.8 10 (01:10) 5.56 (01:10) 0 0 0 0 0
12-09-2020 31.5 (18:00) 13.9 (00:00) 22.7 8.33 (23:59) 4.17 (23:59) 0 0 0 0 0
11-09-2020 30.3 (15:40) 14.5 (00:00) 22.4 8.89 (14:50) 3.61 (14:10) 0 0 0 0 0
10-09-2020 28.3 (17:20) 12.9 (00:00) 20.6 7.22 (15:00) 3.06 (09:20) 0 0 0 0 0
09-09-2020 27.3 (18:10) 10.6 (00:00) 18.9 7.78 (01:20) 4.44 (18:20) 0 0 0 0 0
08-09-2020 25.3 (17:20) 9.2 (00:00) 17.2 9.44 (17:40) 4.17 (11:00) 0 0 0 0 0
07-09-2020 24.6 (18:00) 12 (07:50) 18.3 12.78 (10:00) 7.78 (10:10) 0 0 0 0 0
06-09-2020 32.2 (17:50) 15.5 (00:00) 23.9 11.67 (02:00) 6.11 (01:30) 0 0 0 0 0
05-09-2020 32.7 (18:10) 12.7 (00:00) 22.7 10.56 (23:20) 6.11 (23:20) 0 0 0 0 0
04-09-2020 30.4 (16:50) 14.6 (00:00) 22.5 9.72 (01:10) 5 (01:00) 0 0 0 0 0
03-09-2020 30.5 (17:20) 14.5 (00:00) 22.5 9.17 (00:40) 4.44 (23:59) 0 0 0 0 0
02-09-2020 28.3 (16:50) 11.8 (00:00) 20 7.5 (17:40) 3.61 (08:00) 0 0 0 0 0
01-09-2020 26.7 (16:20) 9.7 (00:00) 18.2 7.5 (15:30) 5.28 (12:00) 0 0 0 0 0
31-08-2020 25.6 (17:40) 8.8 (00:00) 17.2 7.22 (17:30) 4.17 (17:30) 0 0 0 0 0
30-08-2020 21.8 (17:30) 7 (00:00) 14.4 8.33 (10:50) 5 (11:00) 0 0 0 0 0
29-08-2020 22.8 (16:40) 12.5 (00:00) 17.6 14.44 (17:20) 7.22 (17:20) 0 0 0 0 0
28-08-2020 32.6 (16:20) 16.5 (00:00) 24.5 12.5 (18:40) 6.39 (17:20) 0 0 0 0 0

Gráficas

Temp. máximas Temp. mínimas Temp. medias Precipitaciones Rachas de viento máximas Velocidades máximas media en intervalos de 10 minutos

Datos horarios

Fecha y hora oficial Temperatura (ºC) Velocidad del viento (km/h) Dirección del viento Racha (km/h) Dirección de racha Precipitación (mm) Presión (hPa) Tendencia (hPa) Humedad (%)
2020-09-26 23:00:00 -- -- -- -- -- -- -- -- --
2020-09-26 22:00:00 14.1 6 Noroeste 24 Oeste 0 -- -- 53
2020-09-26 21:00:00 15.3 17 Oeste 28 Oeste 0 -- -- 49
2020-09-26 20:00:00 17.2 17 Oeste 35 Oeste 0 -- -- 44
2020-09-26 19:00:00 18.5 16 Oeste 31 Oeste 0 -- -- 42
2020-09-26 18:00:00 18.9 15 Noroeste 30 Noroeste 0 -- -- 39
2020-09-26 17:00:00 19 15 Oeste 35 Noroeste 0 -- -- 37
2020-09-26 16:00:00 18.5 17 Noroeste 33 Noroeste 0 -- -- 39
2020-09-26 15:00:00 17.7 16 Noroeste 36 Noroeste 0 -- -- 40
2020-09-26 14:00:00 17 17 Noroeste 40 Oeste 0 -- -- 41
2020-09-26 13:00:00 15.4 16 Noroeste 34 Noroeste 0 -- -- 45
2020-09-26 12:00:00 14.1 15 Noroeste 35 Noroeste 0 -- -- 47
2020-09-26 11:00:00 12.9 15 Norte 27 Noroeste 0 -- -- 49
2020-09-26 10:00:00 10.3 8 Nordeste 15 Norte 0 -- -- 62
2020-09-26 09:00:00 7.2 6 Nordeste 16 Norte 0 -- -- 73
2020-09-26 08:00:00 6.4 8 Norte 14 Norte 0 -- -- 74
2020-09-26 07:00:00 7 4 Nordeste 19 Norte 0 -- -- 70
2020-09-26 06:00:00 7.3 9 Norte 22 Norte 0 -- -- 69
2020-09-26 05:00:00 8.2 6 Norte 16 Norte 0 -- -- 64
2020-09-26 04:00:00 9.1 7 Norte 18 Nordeste 0 -- -- 61
2020-09-26 03:00:00 10.3 10 Norte 24 Norte 0 -- -- 57
2020-09-26 02:00:00 11.4 14 Noroeste 31 Norte 0 -- -- 52
2020-09-26 01:00:00 11.4 16 Noroeste 30 Noroeste 0 -- -- 52
2020-09-26 00:00:00 10.5 3 Norte 10 Noroeste 0 -- -- 53
2020-09-25 23:00:00 11.7 9 Noroeste 17 Norte 0 -- -- 49
2020-09-25 22:00:00 12.4 10 Noroeste 16 Noroeste 0 -- -- 47
2020-09-25 21:00:00 13.2 9 Noroeste 13 Norte 0 -- -- 45
2020-09-25 20:00:00 14.7 12 Noroeste 28 Noroeste 0 -- -- 41
2020-09-25 19:00:00 16.4 13 Noroeste 29 Noroeste 0 -- -- 37
2020-09-25 18:00:00 17.1 16 Noroeste 33 Noroeste 0 -- -- 36
2020-09-25 17:00:00 17.4 19 Noroeste 38 Noroeste 0 -- -- 34
2020-09-25 16:00:00 18 19 Noroeste 39 Noroeste 0 -- -- 33
2020-09-25 15:00:00 17.6 17 Noroeste 40 Noroeste 0 -- -- 34
2020-09-25 14:00:00 16.8 16 Noroeste 33 Noroeste 0 -- -- 37
2020-09-25 13:00:00 15.7 16 Noroeste 37 Noroeste 0 -- -- 42
2020-09-25 12:00:00 14.2 20 Noroeste 37 Noroeste 0 -- -- 46
2020-09-25 11:00:00 13.1 21 Noroeste 39 Oeste 0 -- -- 53
2020-09-25 10:00:00 12.2 17 Noroeste 45 Noroeste 0 -- -- 58
2020-09-25 09:00:00 10.7 31 Noroeste 47 Noroeste 0 -- -- 60
2020-09-25 08:00:00 9.2 11 Noroeste 23 Oeste 0 -- -- 73
2020-09-25 07:00:00 9 11 Oeste 23 Oeste 0 -- -- 77
2020-09-25 06:00:00 9.7 8 Oeste 24 Noroeste 0 -- -- 75
2020-09-25 05:00:00 10.3 12 Oeste 30 Oeste 0 -- -- 73
2020-09-25 04:00:00 10.7 15 Oeste 25 Oeste 0 -- -- 71
2020-09-25 03:00:00 11.6 11 Oeste 29 Oeste 0 -- -- 72
2020-09-25 02:00:00 13 16 Noroeste 27 Oeste 0 -- -- 74
2020-09-25 01:00:00 14.2 15 Oeste 36 Oeste 0 -- -- 73
2020-09-25 00:00:00 14.9 14 Oeste 32 Oeste 0 -- -- 71
2020-09-24 23:00:00 15.3 14 Oeste 33 Oeste 0 -- -- 69
2020-09-24 22:00:00 16 16 Oeste 33 Oeste 0 -- -- 68
2020-09-24 21:00:00 16.7 17 Oeste 40 Oeste 0 -- -- 67
2020-09-24 20:00:00 17.4 11 Oeste 42 Oeste 0 -- -- 73
2020-09-24 19:00:00 18.7 17 Oeste 51 Sudoeste 0 -- -- 70
2020-09-24 18:00:00 18.7 18 Oeste 34 Oeste 0 -- -- 78
2020-09-24 17:00:00 17.4 13 Oeste 41 Oeste 1 -- -- 86
2020-09-24 16:00:00 19.5 17 Oeste 33 Oeste 0.4 -- -- 70
2020-09-24 15:00:00 19.2 19 Oeste 39 Oeste 0 -- -- 71
2020-09-24 14:00:00 18.3 18 Oeste 38 Sudoeste 0.4 -- -- 74
2020-09-24 13:00:00 20.2 20 Sudoeste 37 Oeste 0 -- -- 64
2020-09-24 12:00:00 18.4 19 Sudoeste 37 Oeste 0 -- -- 73
2020-09-24 11:00:00 17.7 14 Sudoeste 30 Sudoeste 0 -- -- 78
2020-09-24 10:00:00 15.9 12 Sudoeste 22 Sudoeste 0 -- -- 84
2020-09-24 09:00:00 14.8 8 Sur 21 Sur 0 -- -- 88
2020-09-24 08:00:00 14.2 8 Sur 16 Sur 0 -- -- 89
2020-09-24 07:00:00 14.2 4 Sur 10 Sudoeste 0 -- -- 90
2020-09-24 06:00:00 15 5 Oeste 19 Oeste 0 -- -- 90
2020-09-24 05:00:00 14.2 6 Oeste 17 Oeste 0 -- -- 91
2020-09-24 04:00:00 14.3 5 Sur 14 Oeste 0 -- -- 85
2020-09-24 03:00:00 15.5 6 Oeste 18 Sudoeste 0 -- -- 83
2020-09-24 02:00:00 15.2 8 Oeste 18 Oeste 0 -- -- 82
2020-09-24 01:00:00 15.8 3 Noroeste 12 Oeste 0 -- -- 77
2020-09-24 00:00:00 16.1 4 Oeste 16 Oeste 0 -- -- 74
2020-09-23 23:00:00 16.6 9 Oeste 18 Oeste 0 -- -- 71
2020-09-23 22:00:00 17.8 9 Oeste 23 Oeste 0 -- -- 64
2020-09-23 21:00:00 18.9 15 Oeste 27 Oeste 0 -- -- 58
2020-09-23 20:00:00 20.2 13 Oeste 30 Oeste 0 -- -- 57
2020-09-23 19:00:00 21.8 12 Oeste 31 Oeste 0 -- -- 53
2020-09-23 18:00:00 22 13 Oeste 30 Oeste 0 -- -- 53
2020-09-23 17:00:00 22.6 13 Oeste 26 Sudoeste 0 -- -- 52
2020-09-23 16:00:00 21.7 11 Oeste 31 Noroeste 0 -- -- 55
2020-09-23 15:00:00 21.9 17 Oeste 38 Sudoeste 0 -- -- 57
2020-09-23 14:00:00 21 13 Sudoeste 32 Sudoeste 0 -- -- 62
2020-09-23 13:00:00 19.6 12 Oeste 22 Sudoeste 0 -- -- 70
2020-09-23 12:00:00 18.2 10 Oeste 22 Oeste 0 -- -- 78
2020-09-23 11:00:00 16.1 8 Oeste 16 Sudoeste 0.6 -- -- 88
2020-09-23 10:00:00 15 3 Sudoeste 8 Sudoeste 0.8 -- -- 88
2020-09-23 09:00:00 14.5 3 Sur 11 Sudeste 0.4 -- -- 85
2020-09-23 08:00:00 14.5 4 Sudeste 8 Sur 0.2 -- -- 82
2020-09-23 07:00:00 14.7 6 Sur 9 Sur 0 -- -- 79
2020-09-23 06:00:00 14.9 4 Sur 6 Sur 0 -- -- 76
2020-09-23 05:00:00 14.4 4 Sur 8 Sur 0 -- -- 75
2020-09-23 04:00:00 14 0 Calma 4 Sur 0 -- -- 74
2020-09-23 03:00:00 14.7 3 Sur 8 Oeste 0 -- -- 72
2020-09-23 02:00:00 15.1 0 Calma 7 Noroeste 0 -- -- 70
2020-09-23 01:00:00 15.8 3 Oeste 8 Oeste 0 -- -- 67
2020-09-23 00:00:00 16.2 3 Oeste 7 Oeste 0 -- -- 66
2020-09-22 23:00:00 17.1 5 Oeste 7 Oeste 0 -- -- 61
2020-09-22 22:00:00 17.9 4 Oeste 9 Oeste 0 -- -- 57
2020-09-22 21:00:00 19.1 4 Oeste 18 Noroeste 0 -- -- 52
2020-09-22 20:00:00 20.8 10 Oeste 26 Oeste 0 -- -- 47
2020-09-22 19:00:00 22.7 13 Oeste 31 Noroeste 0 -- -- 42
2020-09-22 18:00:00 23.3 17 Oeste 45 Oeste 0 -- -- 41
2020-09-22 17:00:00 23.6 15 Oeste 31 Oeste 0 -- -- 39
2020-09-22 16:00:00 22.9 15 Oeste 31 Oeste 0 -- -- 41
2020-09-22 15:00:00 23.2 13 Oeste 31 Oeste 0 -- -- 40
2020-09-22 14:00:00 22.1 12 Oeste 29 Sudoeste 0 -- -- 43
2020-09-22 13:00:00 21.3 14 Oeste 28 Oeste 0 -- -- 45
2020-09-22 12:00:00 19.6 11 Oeste 21 Oeste 0 -- -- 51
2020-09-22 11:00:00 18.3 4 Sudoeste 13 Oeste 0 -- -- 58
2020-09-22 10:00:00 14.5 5 Sur 8 Sur 0 -- -- 69
2020-09-22 09:00:00 11.2 2 Sur 5 Sur 0 -- -- 77
2020-09-22 08:00:00 9.3 0 Calma 6 Noroeste 0 -- -- 82
2020-09-22 07:00:00 10.6 5 Sur 8 Sudeste 0 -- -- 78
2020-09-22 06:00:00 10.3 5 Sur 7 Sudeste 0 -- -- 79
2020-09-22 05:00:00 10.4 0 Calma 5 Sur 0 -- -- 76
2020-09-22 04:00:00 11.4 0 Calma 2 Sudoeste 0 -- -- 73
2020-09-22 03:00:00 12 0 Calma 5 Sur 0 -- -- 70
2020-09-22 02:00:00 12.7 3 Sur 5 Sur 0 -- -- 68
2020-09-22 01:00:00 13.4 3 Sur 4 Oeste 0 -- -- 67
2020-09-22 00:00:00 14.3 0 Calma 2 Oeste 0 -- -- 63
2020-09-21 23:00:00 15.1 0 Calma 3 Nordeste 0 -- -- 59
2020-09-21 22:00:00 16.3 2 Nordeste 4 Nordeste 0 -- -- 55
2020-09-21 21:00:00 18.4 0 Calma 7 Oeste 0 -- -- 49
2020-09-21 20:00:00 20.7 5 Noroeste 17 Noroeste 0 -- -- 43
2020-09-21 19:00:00 22.8 8 Oeste 21 Oeste 0 -- -- 38
2020-09-21 18:00:00 23.6 8 Noroeste 22 Oeste 0 -- -- 38
2020-09-21 17:00:00 23.6 8 Oeste 24 Oeste 0 -- -- 39
2020-09-21 16:00:00 23.1 9 Noroeste 22 Oeste 0 -- -- 39
2020-09-21 15:00:00 22.9 10 Oeste 31 Noroeste 0 -- -- 41
2020-09-21 14:00:00 21.7 8 Oeste 26 Oeste 0 -- -- 50
2020-09-21 13:00:00 21.6 11 Oeste 23 Noroeste 0 -- -- 54
2020-09-21 12:00:00 19.7 8 Oeste 15 Oeste 0 -- -- 60
2020-09-21 11:00:00 16.8 3 Sudoeste 6 Sudoeste 0 -- -- 81
2020-09-21 10:00:00 12.7 3 Oeste 4 Oeste 0 -- -- 96
2020-09-21 09:00:00 10.7 0 Calma 5 Sur 0 -- -- 95
2020-09-21 08:00:00 10.4 0 Calma 6 Este 0 -- -- 94
2020-09-21 07:00:00 11 0 Calma 5 Sur 0 -- -- 93
2020-09-21 06:00:00 11.6 0 Calma 5 Este 0 -- -- 93
2020-09-21 05:00:00 12.6 3 Sur 5 Sur 0 -- -- 92
2020-09-21 04:00:00 13.2 2 Sur 5 Sur 0 -- -- 90
2020-09-21 03:00:00 13.8 2 Norte 5 Noroeste 0 -- -- 87
2020-09-21 02:00:00 15 2 Sur 11 Sudoeste 0 -- -- 83
2020-09-21 01:00:00 15.2 3 Oeste 21 Noroeste 0 -- -- 82
2020-09-21 00:00:00 16.1 9 Oeste 21 Noroeste 0 -- -- 79
2020-09-20 23:00:00 16.7 9 Oeste 23 Oeste 0 -- -- 76
2020-09-20 22:00:00 16.5 5 Oeste 16 Noroeste 0 -- -- 76
2020-09-20 21:00:00 17.6 6 Oeste 18 Noroeste 0 -- -- 71
2020-09-20 20:00:00 19.3 11 Oeste 21 Sudoeste 0 -- -- 64
2020-09-20 19:00:00 19.9 9 Oeste 27 Sudoeste 0 -- -- 61
2020-09-20 18:00:00 20.5 14 Oeste 26 Oeste 0 -- -- 59
2020-09-20 17:00:00 20.2 8 Oeste 28 Oeste 0 -- -- 61
2020-09-20 16:00:00 20.3 9 Oeste 23 Oeste 0 -- -- 60
2020-09-20 15:00:00 19.5 9 Oeste 24 Sudoeste 0 -- -- 61
2020-09-20 14:00:00 19.7 13 Sudoeste 25 Sudoeste 0 -- -- 60
2020-09-20 13:00:00 19.6 8 Sudoeste 18 Oeste 0 -- -- 61
2020-09-20 12:00:00 17.9 10 Sudoeste 18 Sudoeste 0 -- -- 69
2020-09-20 11:00:00 17.6 6 Sudoeste 19 Sudoeste 0 -- -- 72
2020-09-20 10:00:00 16.3 7 Sudoeste 15 Oeste 0 -- -- 80
2020-09-20 09:00:00 13.7 5 Sur 9 Sur 0 -- -- 89
2020-09-20 08:00:00 13.9 4 Sur 12 Sudoeste 0 -- -- 85
2020-09-20 07:00:00 14.7 5 Sudoeste 14 Sudoeste 0 -- -- 80
2020-09-20 06:00:00 14.7 3 Sudoeste 8 Oeste 0 -- -- 81
2020-09-20 05:00:00 14.9 3 Sur 7 Sur 0 -- -- 82
2020-09-20 04:00:00 15.1 4 Sur 7 Sur 0 -- -- 80
2020-09-20 03:00:00 15.1 3 Sur 9 Sudoeste 0 -- -- 80
2020-09-20 02:00:00 15.1 3 Sur 8 Sudoeste 0 -- -- 79
2020-09-20 01:00:00 14.7 4 Sur 5 Oeste 0 -- -- 79
2020-09-20 00:00:00 14.7 0 Calma 10 Noroeste 0 -- -- 78
2020-09-19 23:00:00 15.5 4 Oeste 16 Oeste 0 -- -- 74
2020-09-19 22:00:00 16.7 6 Oeste 14 Oeste 0 -- -- 69
2020-09-19 21:00:00 17.5 6 Oeste 19 Noroeste 0 -- -- 66
2020-09-19 20:00:00 18.5 13 Oeste 31 Oeste 0 -- -- 63
2020-09-19 19:00:00 20 17 Oeste 31 Noroeste 0 -- -- 55
2020-09-19 18:00:00 21.1 13 Oeste 36 Sudoeste 0 -- -- 49
2020-09-19 17:00:00 21.4 15 Oeste 38 Oeste 0 -- -- 50
2020-09-19 16:00:00 21 17 Sudoeste 40 Sudoeste 0 -- -- 51
2020-09-19 15:00:00 19.9 20 Sudoeste 40 Sudoeste 0 -- -- 59
2020-09-19 14:00:00 19.3 18 Sudoeste 42 Sudoeste 0 -- -- 65
2020-09-19 13:00:00 18 17 Sudoeste 34 Oeste 0 -- -- 71
2020-09-19 12:00:00 17.1 14 Sudoeste 31 Sudoeste 0 -- -- 75
2020-09-19 11:00:00 16.1 13 Sudoeste 32 Sudoeste 0 -- -- 81
2020-09-19 10:00:00 14.9 13 Sur 30 Sur 0 -- -- 87
2020-09-19 09:00:00 13.7 14 Sur 26 Sur 0 -- -- 91
2020-09-19 08:00:00 13.2 14 Sur 26 Sur 0 -- -- 91
2020-09-19 07:00:00 13.4 13 Sur 26 Sur 0 -- -- 91
2020-09-19 06:00:00 14 8 Sur 32 Sur 0 -- -- 88
2020-09-19 05:00:00 14.4 17 Sur 32 Sur 0 -- -- 87
2020-09-19 04:00:00 14.8 17 Sur 32 Sur 0 -- -- 87
2020-09-19 03:00:00 14.8 17 Sur 32 Sur 0 -- -- 88
2020-09-19 02:00:00 14.3 18 Sur 32 Sudeste 0 -- -- 91
2020-09-19 01:00:00 14.2 18 Sur 35 Sur 0.4 -- -- 89
2020-09-19 00:00:00 14.8 10 Sur 20 Sur 0 -- -- 85
2020-09-18 23:00:00 15.1 0 Calma 12 Sur 0 -- -- 87
2020-09-18 22:00:00 15.7 7 Sur 14 Sudeste 0 -- -- 79
2020-09-18 21:00:00 15.6 8 Sudeste 13 Sur 0 -- -- 80
2020-09-18 20:00:00 16 5 Sur 13 Sudoeste 0 -- -- 83
2020-09-18 19:00:00 16.2 6 Sudoeste 19 Sudoeste 2.6 -- -- 82
2020-09-18 18:00:00 18.4 8 Sudoeste 15 Sudoeste 1.6 -- -- 75
2020-09-18 17:00:00 19.5 9 Sur 26 Sudeste 0 -- -- 67
2020-09-18 16:00:00 20.4 15 Sur 26 Sudeste 0 -- -- 60
2020-09-18 15:00:00 18 13 Sudeste 28 Sudoeste 0.8 -- -- 69
2020-09-18 14:00:00 16.1 14 Sur 27 Sur 2 -- -- 83
2020-09-18 13:00:00 16.9 9 Sur 26 Sudeste 0.2 -- -- 86
2020-09-18 12:00:00 18.1 13 Sudeste 31 Sur 0 -- -- 73
2020-09-18 11:00:00 17.6 16 Sudeste 31 Sur 0 -- -- 74
2020-09-18 10:00:00 16.7 17 Sudeste 39 Sur 0 -- -- 76
2020-09-18 09:00:00 16.6 22 Sudeste 36 Sudeste 0 -- -- 75
2020-09-18 08:00:00 17.3 18 Sur 30 Sur 0 -- -- 74
2020-09-18 07:00:00 17.1 14 Sudeste 28 Sudeste 0 -- -- 70
2020-09-18 06:00:00 17.5 18 Sur 37 Sudeste 0 -- -- 70
2020-09-18 05:00:00 17.6 17 Sudeste 36 Sudeste 0 -- -- 81
2020-09-18 04:00:00 18.1 22 Sudeste 37 Sur 0 -- -- 83
2020-09-18 03:00:00 18.3 16 Sudeste 32 Sudeste 0 -- -- 82
2020-09-18 02:00:00 18.1 19 Sudeste 34 Sudeste 0 -- -- 85
2020-09-18 01:00:00 17.8 17 Sudeste 37 Sudeste 0 -- -- 86
2020-09-18 00:00:00 17.5 14 Sudeste 30 Sudeste 0 -- -- 86
2020-09-17 23:00:00 18 18 Sudeste 35 Sudeste 0 -- -- 84
2020-09-17 22:00:00 18.2 15 Sudeste 48 Sur 3.4 -- -- 84
2020-09-17 21:00:00 23.5 9 Sur 21 Sur 0 -- -- 48
2020-09-17 20:00:00 24.3 12 Sur 25 Sur 0 -- -- 46
2020-09-17 19:00:00 25.4 15 Sur 31 Sur 0 -- -- 44
2020-09-17 18:00:00 25.6 13 Sur 33 Sudoeste 0 -- -- 43
2020-09-17 17:00:00 26 15 Sur 28 Sur 0 -- -- 44
2020-09-17 16:00:00 23.9 12 Sudoeste 36 Sur 0 -- -- 51
2020-09-17 15:00:00 23.4 14 Sur 33 Sur 0 -- -- 53
2020-09-17 14:00:00 24.1 16 Sur 35 Sur 0 -- -- 49
2020-09-17 13:00:00 24.1 14 Sur 39 Sudoeste 0 -- -- 49
2020-09-17 12:00:00 23.9 18 Sur 32 Sur 0 -- -- 49
2020-09-17 11:00:00 21.5 17 Sudeste 30 Sur 0 -- -- 58
2020-09-17 10:00:00 20.2 16 Sudeste 27 Sudeste 0 -- -- 63
2020-09-17 09:00:00 18.7 5 Sudeste 21 Este 0 -- -- 68
2020-09-17 08:00:00 18.5 14 Este 27 Este 0 -- -- 69
2020-09-17 07:00:00 17.9 14 Este 23 Sudeste 0 -- -- 76
2020-09-17 06:00:00 17.5 5 Este 10 Sudeste 0 -- -- 79
2020-09-17 05:00:00 17.8 4 Sur 10 Sur 0 -- -- 77
2020-09-17 04:00:00 18.7 3 Sur 27 Sudoeste 0 -- -- 75
2020-09-17 03:00:00 21.4 14 Sudoeste 36 Sur 0 -- -- 53
2020-09-17 02:00:00 22 25 Sudeste 42 Sur 0 -- -- 49
2020-09-17 01:00:00 22.7 17 Sudeste 37 Sudeste 0 -- -- 52
2020-09-17 00:00:00 23.2 14 Sudeste 27 Este 0 -- -- 40
2020-09-16 23:00:00 22.9 11 Sudeste 28 Sudeste 0 -- -- 37
2020-09-16 22:00:00 24.8 10 Sudeste 22 Sudeste 0 -- -- 33
2020-09-16 21:00:00 25.4 7 Sudeste 14 Sur 0 -- -- 32
2020-09-16 20:00:00 27.1 9 Sudeste 24 Sur 0 -- -- 32
2020-09-16 19:00:00 28.7 13 Sudeste 24 Sur 0 -- -- 30
2020-09-16 18:00:00 29.3 12 Sudeste 21 Sudeste 0 -- -- 30
2020-09-16 17:00:00 29.5 8 Sur 21 Sudeste 0 -- -- 31
2020-09-16 16:00:00 29.9 12 Sur 24 Sudeste 0 -- -- 32
2020-09-16 15:00:00 29.3 11 Sur 25 Sur 0 -- -- 33
2020-09-16 14:00:00 29.2 9 Sur 20 Sur 0 -- -- 34
2020-09-16 13:00:00 27.6 11 Sudeste 22 Sudeste 0 -- -- 40
2020-09-16 12:00:00 25.4 9 Sudeste 23 Sudeste 0 -- -- 45
2020-09-16 11:00:00 23.1 10 Sudeste 18 Sudeste 0 -- -- 51
2020-09-16 10:00:00 20.4 9 Este 13 Este 0 -- -- 58
2020-09-16 09:00:00 15.7 5 Este 7 Nordeste 0 -- -- 72
2020-09-16 08:00:00 15 4 Nordeste 7 Nordeste 0 -- -- 70
2020-09-16 07:00:00 16 4 Nordeste 9 Este 0 -- -- 68
2020-09-16 06:00:00 16.5 5 Nordeste 10 Nordeste 0 -- -- 68
2020-09-16 05:00:00 18.2 5 Este 14 Sudeste 0 -- -- 64
2020-09-16 04:00:00 19.1 5 Sur 18 Sudeste 0 -- -- 61
2020-09-16 03:00:00 18.8 8 Sudeste 21 Sudeste 0 -- -- 60
2020-09-16 02:00:00 19.2 10 Sudeste 23 Sudeste 0 -- -- 54
2020-09-16 01:00:00 18 3 Sudoeste 12 Sur 0 -- -- 52
2020-09-16 00:00:00 18 0 Calma 4 Este 0 -- -- 53
2020-09-15 23:00:00 19.7 0 Calma 3 Sur 0 -- -- 47
2020-09-15 22:00:00 21.7 0 Calma 3 Sudeste 0 -- -- 46
2020-09-15 21:00:00 24.5 0 Calma 10 Sudoeste 0 -- -- 41
2020-09-15 20:00:00 26.6 6 Sudoeste 15 Noroeste 0 -- -- 36
2020-09-15 19:00:00 28.4 11 Oeste 22 Sudoeste 0 -- -- 33
2020-09-15 18:00:00 28.5 7 Sudoeste 27 Oeste 0 -- -- 33
2020-09-15 17:00:00 28.6 8 Sur 25 Sudoeste 0 -- -- 33
2020-09-15 16:00:00 28.4 10 Sudoeste 21 Oeste 0 -- -- 35
2020-09-15 15:00:00 28.4 7 Sudoeste 18 Sudoeste 0 -- -- 38
2020-09-15 14:00:00 26.3 6 Oeste 16 Oeste 0 -- -- 44
2020-09-15 13:00:00 26.2 8 Sur 15 Sur 0 -- -- 45
2020-09-15 12:00:00 24.4 8 Sudeste 17 Este 0 -- -- 49
2020-09-15 11:00:00 22.4 10 Sudeste 21 Sudeste 0 -- -- 55
2020-09-15 10:00:00 20.4 10 Sudeste 21 Sudeste 0 -- -- 61
2020-09-15 09:00:00 18.3 11 Sudeste 22 Sudeste 0 -- -- 68
2020-09-15 08:00:00 17 12 Sudeste 25 Sudeste 0 -- -- 73
2020-09-15 07:00:00 17.4 11 Sudeste 22 Sudeste 0 -- -- 72
2020-09-15 06:00:00 17.6 9 Sudeste 29 Sudeste 0 -- -- 71
2020-09-15 05:00:00 18.3 11 Sudeste 30 Este 0 -- -- 68
2020-09-15 04:00:00 18.5 12 Sudeste 36 Sudeste 0 -- -- 70
2020-09-15 03:00:00 19 13 Sudeste 35 Sudeste 0 -- -- 70
2020-09-15 02:00:00 19.8 14 Sudeste 28 Sur 0 -- -- 65
2020-09-15 01:00:00 20.6 15 Sudeste 29 Este 0 -- -- 58
2020-09-15 00:00:00 22 15 Sudeste 37 Sudeste 0 -- -- 52
2020-09-14 23:00:00 23.1 18 Sudeste 32 Sudeste 0 -- -- 49
2020-09-14 22:00:00 24.4 15 Sudeste 25 Sudeste 0 -- -- 42
2020-09-14 21:00:00 24.7 14 Sudeste 37 Sudeste 0 -- -- 39
2020-09-14 20:00:00 25.8 19 Sudeste 35 Sudeste 0 -- -- 34
2020-09-14 19:00:00 27.5 16 Sudeste 30 Sur 0 -- -- 31
2020-09-14 18:00:00 28.1 17 Sudeste 31 Sur 0 -- -- 30
2020-09-14 17:00:00 28.3 17 Sudeste 39 Sudeste 0 -- -- 30
2020-09-14 16:00:00 27.9 19 Sudeste 35 Sur 0 -- -- 33
2020-09-14 15:00:00 26.8 18 Sudeste 40 Sudeste 0 -- -- 33
2020-09-14 14:00:00 26.8 23 Sur 40 Sur 0 -- -- 34
2020-09-14 13:00:00 26.3 20 Sudeste 39 Sudeste 0 -- -- 37
2020-09-14 12:00:00 24.7 23 Sudeste 41 Sur 0 -- -- 42
2020-09-14 11:00:00 23.1 22 Sudeste 43 Sudeste 0 -- -- 47
2020-09-14 10:00:00 20.5 17 Sudeste 31 Este 0 -- -- 54
2020-09-14 09:00:00 16.6 7 Sudeste 29 Este 0 -- -- 66
2020-09-14 08:00:00 15.3 9 Sudeste 17 Sudeste 0 -- -- 71
2020-09-14 07:00:00 15.6 0 Calma 15 Este 0 -- -- 69
2020-09-14 06:00:00 16.2 5 Sudeste 18 Este 0 -- -- 67
2020-09-14 05:00:00 17 8 Sudeste 23 Sudeste 0 -- -- 63
2020-09-14 04:00:00 18.1 12 Sudeste 32 Sudeste 0 -- -- 58
2020-09-14 03:00:00 18.5 16 Sudeste 24 Sudeste 0 -- -- 56
2020-09-14 02:00:00 19.4 17 Sudeste 31 Sudeste 0 -- -- 52
2020-09-14 01:00:00 19.9 19 Sudeste 32 Sudeste 0 -- -- 49
2020-09-14 00:00:00 21.3 19 Sudeste 32 Sudeste 0 -- -- 44
2020-09-13 23:00:00 22.7 15 Sudeste 29 Sudeste 0 -- -- 40
2020-09-13 22:00:00 24.5 14 Sudeste 25 Sur 0 -- -- 36
2020-09-13 21:00:00 25.9 13 Sudeste 24 Sudeste 0 -- -- 33
2020-09-13 20:00:00 28 13 Sudeste 27 Sudeste 0 -- -- 29
2020-09-13 19:00:00 29.9 12 Sudeste 20 Sudeste 0 -- -- 25
2020-09-13 18:00:00 29.4 9 Sudeste 28 Sudeste 0 -- -- 25
2020-09-13 17:00:00 30.6 13 Sudeste 32 Sur 0 -- -- 25
2020-09-13 16:00:00 29.9 15 Sudeste 30 Sudeste 0 -- -- 26
2020-09-13 15:00:00 30.6 17 Sudeste 30 Sudeste 0 -- -- 26
2020-09-13 14:00:00 29.9 19 Sudeste 34 Sur 0 -- -- 26
2020-09-13 13:00:00 28.3 19 Sudeste 35 Sudeste 0 -- -- 27
2020-09-13 12:00:00 26.3 19 Sudeste 33 Sur 0 -- -- 36
2020-09-13 11:00:00 24.3 17 Sudeste 31 Sudeste 0 -- -- 42
2020-09-13 10:00:00 21.7 17 Sudeste 28 Sudeste 0 -- -- 50
2020-09-13 09:00:00 19 10 Sudeste 18 Sudeste 0 -- -- 58
2020-09-13 08:00:00 16.7 0 Calma 17 Sudeste 0 -- -- 65
2020-09-13 07:00:00 17.5 8 Sudeste 31 Este 0 -- -- 64
2020-09-13 06:00:00 18 16 Sudeste 34 Este 0 -- -- 62
2020-09-13 05:00:00 18.3 16 Sudeste 32 Sudeste 0 -- -- 61
2020-09-13 04:00:00 18.7 19 Sudeste 33 Sudeste 0 -- -- 57
2020-09-13 03:00:00 19.2 17 Sudeste 33 Este 0 -- -- 55
2020-09-13 02:00:00 20 17 Sudeste 36 Sudeste 0 -- -- 56
2020-09-13 01:00:00 21 19 Sudeste 36 Sudeste 0 -- -- 57
2020-09-13 00:00:00 21.7 15 Sudeste 30 Sudeste 0 -- -- 54
2020-09-12 23:00:00 21 7 Este 19 Sudeste 0 -- -- 36
2020-09-12 22:00:00 23 2 Norte 6 Sudeste 0 -- -- 31
2020-09-12 21:00:00 25.6 5 Sudeste 6 Sudeste 0 -- -- 28
2020-09-12 20:00:00 28.9 0 Calma 9 Oeste 0 -- -- 24
2020-09-12 19:00:00 30.6 5 Sudeste 15 Este 0 -- -- 22
2020-09-12 18:00:00 31.5 5 Oeste 13 Oeste 0 -- -- 23
2020-09-12 17:00:00 30 3 Sudoeste 17 Este 0 -- -- 24
2020-09-12 16:00:00 30.3 9 Este 19 Sudeste 0 -- -- 24
2020-09-12 15:00:00 30.9 9 Sudoeste 21 Sur 0 -- -- 25
2020-09-12 14:00:00 29.9 8 Sudeste 18 Sudeste 0 -- -- 29
2020-09-12 13:00:00 28.2 10 Sudeste 21 Este 0 -- -- 32
2020-09-12 12:00:00 26.4 12 Sudeste 22 Sudeste 0 -- -- 36
2020-09-12 11:00:00 23.9 10 Sudeste 19 Sudeste 0 -- -- 41
2020-09-12 10:00:00 21.4 9 Este 15 Este 0 -- -- 46
2020-09-12 09:00:00 16.8 8 Nordeste 10 Nordeste 0 -- -- 58
2020-09-12 08:00:00 14.2 5 Nordeste 8 Nordeste 0 -- -- 63
2020-09-12 07:00:00 14.9 4 Nordeste 8 Nordeste 0 -- -- 63
2020-09-12 06:00:00 15.9 0 Calma 6 Sudeste 0 -- -- 61
2020-09-12 05:00:00 16.9 3 Este 11 Este 0 -- -- 59
2020-09-12 04:00:00 18.5 6 Sudeste 21 Este 0 -- -- 55
2020-09-12 03:00:00 19.2 12 Sudeste 23 Sudeste 0 -- -- 53
2020-09-12 02:00:00 19 7 Sudeste 26 Sudeste 0 -- -- 47
2020-09-12 01:00:00 17.9 9 Este 21 Sudeste 0 -- -- 40
2020-09-12 00:00:00 18.9 0 Calma 5 Sudeste 0 -- -- 39
2020-09-11 23:00:00 20.4 0 Calma 0 Calma 0 -- -- 37
2020-09-11 22:00:00 22.5 0 Calma 5 Noroeste 0 -- -- 34
2020-09-11 21:00:00 25.3 3 Oeste 9 Oeste 0 -- -- 30
2020-09-11 20:00:00 28.2 5 Oeste 14 Oeste 0 -- -- 26
2020-09-11 19:00:00 29.4 6 Oeste 23 Noroeste 0 -- -- 25
2020-09-11 18:00:00 30.3 5 Oeste 24 Noroeste 0 -- -- 23
2020-09-11 17:00:00 30.2 10 Noroeste 23 Oeste 0 -- -- 22
2020-09-11 16:00:00 30.1 13 Oeste 31 Noroeste 0 -- -- 23
2020-09-11 15:00:00 30.2 5 Sudoeste 32 Oeste 0 -- -- 23
2020-09-11 14:00:00 29 10 Noroeste 22 Noroeste 0 -- -- 25
2020-09-11 13:00:00 28.1 3 Sur 12 Nordeste 0 -- -- 30
2020-09-11 12:00:00 25.7 5 Nordeste 10 Este 0 -- -- 42
2020-09-11 11:00:00 23.5 5 Sudeste 12 Nordeste 0 -- -- 50
2020-09-11 10:00:00 20 9 Nordeste 15 Nordeste 0 -- -- 55
2020-09-11 09:00:00 17 8 Nordeste 13 Este 0 -- -- 59
2020-09-11 08:00:00 14.5 10 Nordeste 14 Nordeste 0 -- -- 66
2020-09-11 07:00:00 15 10 Nordeste 13 Nordeste 0 -- -- 65
2020-09-11 06:00:00 14.6 7 Nordeste 10 Nordeste 0 -- -- 64
2020-09-11 05:00:00 15.2 5 Nordeste 9 Nordeste 0 -- -- 64
2020-09-11 04:00:00 15.6 7 Nordeste 10 Norte 0 -- -- 57
2020-09-11 03:00:00 16.8 7 Nordeste 12 Nordeste 0 -- -- 52
2020-09-11 02:00:00 18.1 8 Nordeste 13 Nordeste 0 -- -- 47
2020-09-11 01:00:00 18.4 3 Norte 10 Norte 0 -- -- 42
2020-09-11 00:00:00 19.3 7 Norte 12 Nordeste 0 -- -- 41
2020-09-10 23:00:00 20.2 8 Nordeste 12 Nordeste 0 -- -- 38
2020-09-10 22:00:00 20.6 6 Nordeste 9 Nordeste 0 -- -- 36
2020-09-10 21:00:00 23.7 4 Nordeste 14 Nordeste 0 -- -- 31
2020-09-10 20:00:00 26.7 8 Norte 14 Norte 0 -- -- 28
2020-09-10 19:00:00 27.6 8 Nordeste 15 Norte 0 -- -- 28
2020-09-10 18:00:00 27.4 4 Norte 22 Norte 0 -- -- 28
2020-09-10 17:00:00 28.2 10 Norte 23 Nordeste 0 -- -- 26
2020-09-10 16:00:00 28 9 Nordeste 24 Noroeste 0 -- -- 28
2020-09-10 15:00:00 27.1 10 Nordeste 26 Norte 0 -- -- 29
2020-09-10 14:00:00 26 10 Nordeste 19 Nordeste 0 -- -- 31
2020-09-10 13:00:00 24.5 8 Nordeste 17 Nordeste 0 -- -- 38
2020-09-10 12:00:00 23.3 8 Norte 18 Nordeste 0 -- -- 42
2020-09-10 11:00:00 21.1 10 Nordeste 17 Este 0 -- -- 48
2020-09-10 10:00:00 18.6 8 Nordeste 18 Nordeste 0 -- -- 52
2020-09-10 09:00:00 15.6 10 Nordeste 17 Nordeste 0 -- -- 59
2020-09-10 08:00:00 12.9 8 Nordeste 13 Nordeste 0 -- -- 62
2020-09-10 07:00:00 13.6 8 Nordeste 13 Nordeste 0 -- -- 56
2020-09-10 06:00:00 13.7 6 Nordeste 10 Nordeste 0 -- -- 56
2020-09-10 05:00:00 14.2 6 Nordeste 11 Este 0 -- -- 51
2020-09-10 04:00:00 15.9 5 Este 13 Este 0 -- -- 48
2020-09-10 03:00:00 16.5 5 Este 12 Nordeste 0 -- -- 46
2020-09-10 02:00:00 17.1 0 Calma 6 Nordeste 0 -- -- 40
2020-09-10 01:00:00 18.2 6 Norte 14 Nordeste 0 -- -- 39
2020-09-10 00:00:00 17.8 2 Sudoeste 4 Oeste 0 -- -- 39
2020-09-09 23:00:00 19.1 0 Calma 6 Oeste 0 -- -- 36
2020-09-09 22:00:00 21 4 Oeste 8 Oeste 0 -- -- 33
2020-09-09 21:00:00 22.8 4 Oeste 12 Oeste 0 -- -- 31
2020-09-09 20:00:00 25.5 9 Oeste 23 Noroeste 0 -- -- 28
2020-09-09 19:00:00 27 13 Noroeste 27 Oeste 0 -- -- 26
2020-09-09 18:00:00 27 14 Noroeste 25 Noroeste 0 -- -- 27
2020-09-09 17:00:00 25.8 6 Noroeste 21 Norte 0 -- -- 29
2020-09-09 16:00:00 26.4 5 Noroeste 21 Noroeste 0 -- -- 29
2020-09-09 15:00:00 26.2 6 Sudoeste 17 Noroeste 0 -- -- 30
2020-09-09 14:00:00 24.5 7 Norte 25 Este 0 -- -- 32
2020-09-09 13:00:00 23.3 7 Nordeste 17 Este 0 -- -- 35
2020-09-09 12:00:00 21.9 5 Norte 13 Norte 0 -- -- 40
2020-09-09 11:00:00 20.2 3 Norte 12 Nordeste 0 -- -- 45
2020-09-09 10:00:00 17.7 7 Nordeste 13 Nordeste 0 -- -- 52
2020-09-09 09:00:00 14.9 6 Nordeste 14 Nordeste 0 -- -- 56
2020-09-09 08:00:00 13.1 9 Nordeste 14 Nordeste 0 -- -- 63
2020-09-09 07:00:00 10.8 5 Nordeste 8 Nordeste 0 -- -- 69
2020-09-09 06:00:00 11.7 4 Nordeste 10 Este 0 -- -- 62
2020-09-09 05:00:00 13.3 0 Calma 20 Sudeste 0 -- -- 58
2020-09-09 04:00:00 14.3 8 Sudeste 22 Este 0 -- -- 55
2020-09-09 03:00:00 14.5 12 Sudeste 25 Sudeste 0 -- -- 54
2020-09-09 02:00:00 14.9 12 Sudeste 28 Sudeste 0 -- -- 52
2020-09-09 01:00:00 15.9 13 Sudeste 26 Sudeste 0 -- -- 49
2020-09-09 00:00:00 17.4 14 Sudeste 24 Sudeste 0 -- -- 44
2020-09-08 23:00:00 18.1 10 Sudeste 17 Sudeste 0 -- -- 41
2020-09-08 22:00:00 19.1 3 Sudeste 11 Sudeste 0 -- -- 39
2020-09-08 21:00:00 20.7 6 Sudeste 18 Sur 0 -- -- 35
2020-09-08 20:00:00 22.9 12 Sudeste 22 Sudeste 0 -- -- 33
2020-09-08 19:00:00 24.4 10 Sur 23 Sudeste 0 -- -- 31
2020-09-08 18:00:00 24.9 10 Sudeste 34 Nordeste 0 -- -- 30
2020-09-08 17:00:00 25.2 10 Sur 27 Este 0 -- -- 30
2020-09-08 16:00:00 24.6 12 Sur 31 Sudeste 0 -- -- 32
2020-09-08 15:00:00 23.7 11 Sudeste 33 Sur 0 -- -- 35
2020-09-08 14:00:00 23 13 Sudeste 28 Sudeste 0 -- -- 37
2020-09-08 13:00:00 21.6 10 Este 22 Sudeste 0 -- -- 40
2020-09-08 12:00:00 19.6 12 Sudeste 27 Este 0 -- -- 48
2020-09-08 11:00:00 17.9 15 Este 29 Sudeste 0 -- -- 55
2020-09-08 10:00:00 15 9 Nordeste 17 Nordeste 0 -- -- 50
2020-09-08 09:00:00 11.3 10 Nordeste 19 Nordeste 0 -- -- 61
2020-09-08 08:00:00 9.2 10 Nordeste 18 Nordeste 0 -- -- 68
2020-09-08 07:00:00 9.5 10 Nordeste 20 Nordeste 0 -- -- 67
2020-09-08 06:00:00 10.2 13 Nordeste 23 Nordeste 0 -- -- 63
2020-09-08 05:00:00 11.9 10 Nordeste 17 Nordeste 0 -- -- 55
2020-09-08 04:00:00 12.3 7 Nordeste 13 Nordeste 0 -- -- 52
2020-09-08 03:00:00 11.9 6 Nordeste 14 Sudeste 0 -- -- 70
2020-09-08 02:00:00 13.8 8 Este 14 Este 0 -- -- 69
2020-09-08 01:00:00 14.5 5 Este 17 Nordeste 0 -- -- 38
2020-09-08 00:00:00 15.2 6 Nordeste 13 Nordeste 0 -- -- 34
2020-09-07 23:00:00 16.8 5 Este 20 Nordeste 0 -- -- 31
2020-09-07 22:00:00 17.9 8 Nordeste 21 Nordeste 0 -- -- 29
2020-09-07 21:00:00 19.9 10 Norte 33 Norte 0 -- -- 26
2020-09-07 20:00:00 22.3 18 Norte 32 Norte 0 -- -- 24
2020-09-07 19:00:00 23.8 16 Norte 31 Norte 0 -- -- 22
2020-09-07 18:00:00 24.6 13 Norte 32 Norte 0 -- -- 23
2020-09-07 17:00:00 24.3 18 Norte 33 Norte 0 -- -- 27
2020-09-07 16:00:00 24.2 13 Norte 32 Nordeste 0 -- -- 28
2020-09-07 15:00:00 23.4 15 Norte 32 Nordeste 0 -- -- 28
2020-09-07 14:00:00 22.1 15 Norte 36 Nordeste 0 -- -- 31
2020-09-07 13:00:00 20.4 19 Norte 33 Norte 0 -- -- 37
2020-09-07 12:00:00 19.1 21 Nordeste 36 Nordeste 0 -- -- 40
2020-09-07 11:00:00 17.3 22 Nordeste 42 Norte 0 -- -- 44
2020-09-07 10:00:00 15 27 Norte 46 Nordeste 0 -- -- 54
2020-09-07 09:00:00 13.2 23 Norte 40 Norte 0 -- -- 61
2020-09-07 08:00:00 12 14 Norte 26 Nordeste 0 -- -- 67
2020-09-07 07:00:00 12.5 12 Nordeste 26 Nordeste 0 -- -- 67
2020-09-07 06:00:00 13.1 10 Nordeste 28 Nordeste 0 -- -- 66
2020-09-07 05:00:00 14.3 11 Nordeste 20 Nordeste 0 -- -- 64
2020-09-07 04:00:00 15.6 8 Norte 17 Nordeste 0 -- -- 61
2020-09-07 03:00:00 17 10 Nordeste 17 Nordeste 0 -- -- 59
2020-09-07 02:00:00 19.1 8 Nordeste 17 Nordeste 0 -- -- 55
2020-09-07 01:00:00 20.7 8 Nordeste 16 Norte 0 -- -- 50
2020-09-07 00:00:00 22.1 7 Nordeste 14 Norte 0 -- -- 41
2020-09-06 23:00:00 23 7 Nordeste 14 Nordeste 0 -- -- 34
2020-09-06 22:00:00 23.7 0 Calma 4 Sur 0 -- -- 29
2020-09-06 21:00:00 26.9 0 Calma 10 Oeste 0 -- -- 25
2020-09-06 20:00:00 29.8 8 Oeste 30 Noroeste 0 -- -- 22
2020-09-06 19:00:00 31.5 9 Oeste 21 Oeste 0 -- -- 21
2020-09-06 18:00:00 32.1 12 Oeste 33 Sudoeste 0 -- -- 20
2020-09-06 17:00:00 31.2 15 Oeste 36 Noroeste 0 -- -- 22
2020-09-06 16:00:00 31.5 12 Sudoeste 29 Oeste 0 -- -- 22
2020-09-06 15:00:00 30.9 8 Sur 22 Sur 0 -- -- 23
2020-09-06 14:00:00 29.9 9 Sur 24 Sudeste 0 -- -- 24
2020-09-06 13:00:00 28.4 10 Sur 27 Sudeste 0 -- -- 27
2020-09-06 12:00:00 26.2 13 Sudeste 28 Sudeste 0 -- -- 32
2020-09-06 11:00:00 24.2 12 Sudeste 24 Sudeste 0 -- -- 37
2020-09-06 10:00:00 20.7 10 Este 19 Este 0 -- -- 44
2020-09-06 09:00:00 17.5 7 Nordeste 13 Nordeste 0 -- -- 52
2020-09-06 08:00:00 15.5 9 Nordeste 15 Nordeste 0 -- -- 57
2020-09-06 07:00:00 16.1 11 Nordeste 19 Este 0 -- -- 56
2020-09-06 06:00:00 16.7 4 Noroeste 23 Sudeste 0 -- -- 57
2020-09-06 05:00:00 17.5 9 Sudeste 29 Este 0 -- -- 57
2020-09-06 04:00:00 18 15 Sudeste 30 Sudeste 0 -- -- 59
2020-09-06 03:00:00 18.5 15 Sudeste 36 Sudeste 0 -- -- 56
2020-09-06 02:00:00 19.8 19 Sudeste 42 Sudeste 0 -- -- 54
2020-09-06 01:00:00 20.9 21 Sudeste 39 Sudeste 0 -- -- 50
2020-09-06 00:00:00 22.3 19 Sudeste 38 Sudeste 0 -- -- 42
2020-09-05 23:00:00 23.9 16 Sudeste 29 Sudeste 0 -- -- 40
2020-09-05 22:00:00 25.3 9 Sudeste 17 Sudeste 0 -- -- 29
2020-09-05 21:00:00 27.7 0 Calma 12 Oeste 0 -- -- 28
2020-09-05 20:00:00 30.8 8 Oeste 14 Oeste 0 -- -- 25
2020-09-05 19:00:00 32.1 6 Oeste 23 Noroeste 0 -- -- 24
2020-09-05 18:00:00 32.5 5 Sudoeste 19 Oeste 0 -- -- 24
2020-09-05 17:00:00 31.7 3 Nordeste 20 Este 0 -- -- 24
2020-09-05 16:00:00 31.1 6 Nordeste 17 Este 0 -- -- 24
2020-09-05 15:00:00 30.6 5 Oeste 14 Norte 0 -- -- 28
2020-09-05 14:00:00 28.9 6 Noroeste 18 Nordeste 0 -- -- 31
2020-09-05 13:00:00 27.4 5 Norte 12 Este 0 -- -- 33
2020-09-05 12:00:00 25.3 6 Sudeste 18 Este 0 -- -- 37
2020-09-05 11:00:00 22.5 9 Este 19 Este 0 -- -- 53
2020-09-05 10:00:00 19.9 8 Sudeste 18 Este 0 -- -- 64
2020-09-05 09:00:00 16.5 4 Nordeste 9 Nordeste 0 -- -- 72
2020-09-05 08:00:00 12.9 8 Este 13 Este 0 -- -- 84
2020-09-05 07:00:00 13.4 9 Este 11 Este 0 -- -- 81
2020-09-05 06:00:00 15.4 4 Nordeste 14 Este 0 -- -- 74
2020-09-05 05:00:00 16.8 7 Este 14 Sudeste 0 -- -- 70
2020-09-05 04:00:00 17.3 4 Sur 14 Sur 0 -- -- 67
2020-09-05 03:00:00 18.2 8 Sur 27 Sudeste 0 -- -- 63
2020-09-05 02:00:00 18.9 12 Sudeste 33 Este 0 -- -- 60
2020-09-05 01:00:00 19.6 15 Sudeste 29 Sudeste 0 -- -- 56
2020-09-05 00:00:00 21.3 14 Sudeste 27 Sudeste 0 -- -- 43
2020-09-04 23:00:00 21 4 Sudeste 12 Sudeste 0 -- -- 39
2020-09-04 22:00:00 23 8 Sudeste 13 Sur 0 -- -- 34
2020-09-04 21:00:00 25.5 3 Sur 18 Sur 0 -- -- 28
2020-09-04 20:00:00 28 11 Sudeste 23 Sur 0 -- -- 22
2020-09-04 19:00:00 29.5 12 Sur 26 Sur 0 -- -- 21
2020-09-04 18:00:00 30.2 11 Sur 23 Sudeste 0 -- -- 20
2020-09-04 17:00:00 30.3 9 Sudeste 24 Sudeste 0 -- -- 18
2020-09-04 16:00:00 29.4 10 Sur 25 Este 0 -- -- 23
2020-09-04 15:00:00 28.9 11 Este 26 Este 0 -- -- 25
2020-09-04 14:00:00 27.8 12 Sudeste 23 Este 0 -- -- 31
2020-09-04 13:00:00 26.2 10 Este 28 Sudeste 0 -- -- 33
2020-09-04 12:00:00 24.5 10 Sudeste 23 Sur 0 -- -- 36
2020-09-04 11:00:00 23 11 Sudeste 19 Este 0 -- -- 44
2020-09-04 10:00:00 20.1 9 Sudeste 17 Sudeste 0 -- -- 56
2020-09-04 09:00:00 17.4 6 Este 9 Este 0 -- -- 64
2020-09-04 08:00:00 14.8 3 Noroeste 20 Sudeste 0 -- -- 72
2020-09-04 07:00:00 15.4 10 Sudeste 19 Sudeste 0 -- -- 69
2020-09-04 06:00:00 15.9 7 Sudeste 28 Sudeste 0 -- -- 68
2020-09-04 05:00:00 16.6 13 Sudeste 30 Sudeste 0 -- -- 67
2020-09-04 04:00:00 17.1 12 Sudeste 31 Sudeste 0 -- -- 66
2020-09-04 03:00:00 18 17 Sudeste 33 Sudeste 0 -- -- 64
2020-09-04 02:00:00 18.9 18 Sudeste 35 Este 0 -- -- 64
2020-09-04 01:00:00 20 18 Sudeste 31 Este 0 -- -- 60
2020-09-04 00:00:00 21.3 16 Sudeste 31 Este 0 -- -- 48
2020-09-03 23:00:00 21.2 3 Este 7 Este 0 -- -- 36
2020-09-03 22:00:00 22.9 0 Calma 6 Sudeste 0 -- -- 32
2020-09-03 21:00:00 26.1 4 Sur 10 Sudeste 0 -- -- 28
2020-09-03 20:00:00 28.5 6 Sudeste 14 Sudeste 0 -- -- 25
2020-09-03 19:00:00 29.6 8 Sudeste 21 Sudeste 0 -- -- 24
2020-09-03 18:00:00 29.7 8 Este 18 Este 0 -- -- 24
2020-09-03 17:00:00 30.3 6 Oeste 18 Sur 0 -- -- 24
2020-09-03 16:00:00 29.3 6 Nordeste 21 Sur 0 -- -- 25
2020-09-03 15:00:00 29.1 4 Noroeste 15 Oeste 0 -- -- 26
2020-09-03 14:00:00 28.1 4 Oeste 15 Sur 0 -- -- 28
2020-09-03 13:00:00 26.7 8 Sur 17 Sur 0 -- -- 35
2020-09-03 12:00:00 24.2 8 Sudeste 19 Este 0 -- -- 49
2020-09-03 11:00:00 21.9 10 Sudeste 18 Este 0 -- -- 60
2020-09-03 10:00:00 18.8 10 Sudeste 24 Este 0 -- -- 71
2020-09-03 09:00:00 17.4 4 Sudeste 8 Sudeste 0 -- -- 78
2020-09-03 08:00:00 14.6 3 Oeste 13 Este 0 -- -- 87
2020-09-03 07:00:00 15 8 Sudeste 22 Sudeste 0 -- -- 85
2020-09-03 06:00:00 15.1 9 Sudeste 19 Sudeste 0 -- -- 84
2020-09-03 05:00:00 14.8 2 Este 12 Sudeste 0 -- -- 80
2020-09-03 04:00:00 15.6 3 Sudeste 15 Sudeste 0 -- -- 76
2020-09-03 03:00:00 16.6 9 Sudeste 32 Sudeste 0 -- -- 70
2020-09-03 02:00:00 17.1 12 Sudeste 23 Este 0 -- -- 65
2020-09-03 01:00:00 17.3 7 Sudeste 33 Sudeste 0 -- -- 48
2020-09-03 00:00:00 16.6 0 Calma 3 Norte 0 -- -- 36
2020-09-02 23:00:00 18.5 0 Calma 4 Sur 0 -- -- 33
2020-09-02 22:00:00 20.7 2 Este 5 Nordeste 0 -- -- 30
2020-09-02 21:00:00 23.9 0 Calma 14 Oeste 0 -- -- 27
2020-09-02 20:00:00 26.9 7 Oeste 18 Noroeste 0 -- -- 23
2020-09-02 19:00:00 27.4 6 Norte 21 Oeste 0 -- -- 23
2020-09-02 18:00:00 27.8 7 Noroeste 27 Noroeste 0 -- -- 22
2020-09-02 17:00:00 28.3 5 Sudoeste 26 Norte 0 -- -- 22
2020-09-02 16:00:00 27.8 9 Noroeste 18 Noroeste 0 -- -- 24
2020-09-02 15:00:00 27.4 7 Sur 19 Sudeste 0 -- -- 25
2020-09-02 14:00:00 25.6 5 Nordeste 23 Norte 0 -- -- 27
2020-09-02 13:00:00 24.4 6 Norte 14 Noroeste 0 -- -- 33
2020-09-02 12:00:00 23.3 5 Sudeste 15 Nordeste 0 -- -- 44
2020-09-02 11:00:00 20.3 9 Nordeste 19 Nordeste 0 -- -- 39
2020-09-02 10:00:00 16.7 12 Nordeste 20 Nordeste 0 -- -- 43
2020-09-02 09:00:00 13.9 12 Nordeste 19 Nordeste 0 -- -- 50
2020-09-02 08:00:00 11.9 13 Nordeste 19 Nordeste 0 -- -- 55
2020-09-02 07:00:00 11.9 10 Nordeste 14 Nordeste 0 -- -- 53
2020-09-02 06:00:00 12.1 9 Nordeste 13 Nordeste 0 -- -- 51
2020-09-02 05:00:00 12.6 6 Nordeste 9 Nordeste 0 -- -- 50
2020-09-02 04:00:00 13.4 6 Nordeste 13 Nordeste 0 -- -- 46
2020-09-02 03:00:00 14.6 9 Nordeste 15 Nordeste 0 -- -- 42
2020-09-02 02:00:00 13.8 7 Nordeste 10 Nordeste 0 -- -- 42
2020-09-02 01:00:00 14.8 5 Nordeste 9 Nordeste 0 -- -- 40
2020-09-02 00:00:00 16 2 Sudeste 6 Nordeste 0 -- -- 36
2020-09-01 23:00:00 17.5 4 Nordeste 7 Nordeste 0 -- -- 33
2020-09-01 22:00:00 19 0 Calma 6 Norte 0 -- -- 31
2020-09-01 21:00:00 20.7 5 Este 6 Este 0 -- -- 29
2020-09-01 20:00:00 23.5 5 Nordeste 14 Nordeste 0 -- -- 25
2020-09-01 19:00:00 24.7 0 Calma 17 Noroeste 0 -- -- 24
2020-09-01 18:00:00 24.2 9 Oeste 21 Oeste 0 -- -- 25
2020-09-01 17:00:00 25.4 7 Oeste 23 Oeste 0 -- -- 24
2020-09-01 16:00:00 25.7 11 Norte 27 Noroeste 0 -- -- 26
2020-09-01 15:00:00 24.7 7 Noroeste 19 Oeste 0 -- -- 26
2020-09-01 14:00:00 23.3 4 Oeste 17 Noroeste 0 -- -- 36
2020-09-01 13:00:00 20.3 5 Oeste 21 Este 0 -- -- 50
2020-09-01 12:00:00 18.8 19 Este 26 Este 0 -- -- 59
2020-09-01 11:00:00 17.8 4 Sur 10 Sur 0 -- -- 63
2020-09-01 10:00:00 15.6 6 Nordeste 10 Nordeste 0 -- -- 68
2020-09-01 09:00:00 13.3 6 Nordeste 10 Norte 0 -- -- 63
2020-09-01 08:00:00 11.6 2 Este 7 Este 0 -- -- 74
2020-09-01 07:00:00 10.6 2 Nordeste 5 Norte 0 -- -- 62
2020-09-01 06:00:00 11.1 2 Nordeste 10 Este 0 -- -- 53
2020-09-01 05:00:00 9.7 2 Este 4 Este 0 -- -- 48
2020-09-01 04:00:00 9.9 0 Calma 7 Este 0 -- -- 47
2020-09-01 03:00:00 10.3 2 Este 4 Este 0 -- -- 44
2020-09-01 02:00:00 11.3 2 Sur 4 Sur 0 -- -- 42
2020-09-01 01:00:00 12.4 2 Noroeste 5 Oeste 0 -- -- 41
2020-09-01 00:00:00 13.8 0 Calma 3 Nordeste 0 -- -- 38
2020-08-31 23:00:00 16.1 0 Calma 4 Este 0 -- -- 35
2020-08-31 22:00:00 18 0 Calma 10 Noroeste 0 -- -- 32
2020-08-31 21:00:00 21.1 7 Noroeste 15 Oeste 0 -- -- 28
2020-08-31 20:00:00 23.6 9 Noroeste 19 Noroeste 0 -- -- 26
2020-08-31 19:00:00 24.8 10 Noroeste 24 Noroeste 0 -- -- 24
2020-08-31 18:00:00 25.2 9 Noroeste 26 Oeste 0 -- -- 24
2020-08-31 17:00:00 25.5 9 Noroeste 24 Oeste 0 -- -- 25
2020-08-31 16:00:00 25.3 9 Oeste 24 Oeste 0 -- -- 23
2020-08-31 15:00:00 23.8 5 Norte 19 Sudoeste 0 -- -- 27
2020-08-31 14:00:00 22.7 7 Oeste 22 Oeste 0 -- -- 31
2020-08-31 13:00:00 21.5 5 Este 14 Sur 0 -- -- 34
2020-08-31 12:00:00 20.5 3 Sur 13 Norte 0 -- -- 38
2020-08-31 11:00:00 19.2 4 Sudeste 13 Este 0 -- -- 42
2020-08-31 10:00:00 14.7 9 Norte 15 Nordeste 0 -- -- 51
2020-08-31 09:00:00 12 8 Nordeste 15 Nordeste 0 -- -- 61
2020-08-31 08:00:00 9.3 11 Nordeste 19 Nordeste 0 -- -- 71
2020-08-31 07:00:00 9.1 10 Nordeste 18 Nordeste 0 -- -- 69
2020-08-31 06:00:00 9.1 10 Nordeste 18 Nordeste 0 -- -- 65
2020-08-31 05:00:00 9.4 10 Nordeste 17 Nordeste 0 -- -- 62
2020-08-31 04:00:00 10.3 10 Nordeste 15 Nordeste 0 -- -- 57
2020-08-31 03:00:00 10.8 10 Nordeste 18 Nordeste 0 -- -- 55
2020-08-31 02:00:00 11.3 9 Nordeste 15 Nordeste 0 -- -- 51
2020-08-31 01:00:00 12.6 10 Nordeste 25 Nordeste 0 -- -- 45
2020-08-31 00:00:00 13.7 13 Nordeste 22 Norte 0 -- -- 38
2020-08-30 23:00:00 13.6 5 Nordeste 11 Nordeste 0 -- -- 35
2020-08-30 22:00:00 15.2 4 Nordeste 8 Nordeste 0 -- -- 32
2020-08-30 21:00:00 18.3 5 Norte 23 Norte 0 -- -- 28
2020-08-30 20:00:00 20.4 12 Norte 20 Norte 0 -- -- 26
2020-08-30 19:00:00 21.1 10 Norte 23 Norte 0 -- -- 26
2020-08-30 18:00:00 21.2 11 Norte 27 Norte 0 -- -- 27
2020-08-30 17:00:00 21.7 10 Noroeste 23 Noroeste 0 -- -- 26
2020-08-30 16:00:00 20.4 10 Norte 22 Noroeste 0 -- -- 29
2020-08-30 15:00:00 20.3 11 Norte 23 Norte 0 -- -- 31
2020-08-30 14:00:00 19.4 11 Nordeste 24 Norte 0 -- -- 34
2020-08-30 13:00:00 17.7 13 Nordeste 27 Nordeste 0 -- -- 38
2020-08-30 12:00:00 15.6 14 Norte 29 Norte 0 -- -- 47
2020-08-30 11:00:00 14 18 Norte 30 Nordeste 0 -- -- 52
2020-08-30 10:00:00 12.7 16 Nordeste 27 Norte 0 -- -- 58
2020-08-30 09:00:00 10.5 10 Norte 21 Norte 0 -- -- 69
2020-08-30 08:00:00 7.5 6 Nordeste 14 Norte 0 -- -- 80
2020-08-30 07:00:00 7.1 6 Nordeste 10 Nordeste 0 -- -- 81
2020-08-30 06:00:00 8 5 Nordeste 18 Nordeste 0 -- -- 78
2020-08-30 05:00:00 9.3 8 Norte 17 Norte 0 -- -- 75
2020-08-30 04:00:00 9.9 4 Nordeste 14 Norte 0 -- -- 72
2020-08-30 03:00:00 11 10 Nordeste 20 Norte 0 -- -- 68
2020-08-30 02:00:00 12 14 Nordeste 24 Nordeste 0 -- -- 64
2020-08-30 01:00:00 12.9 11 Nordeste 26 Norte 0 -- -- 59
2020-08-30 00:00:00 14 12 Norte 26 Norte 0 -- -- 53
2020-08-29 23:00:00 14.9 12 Norte 30 Norte 0 -- -- 46
2020-08-29 22:00:00 16.2 13 Norte 32 Norte 0 -- -- 41
2020-08-29 21:00:00 17.9 18 Norte 34 Noroeste 0 -- -- 37
2020-08-29 20:00:00 20.3 19 Noroeste 35 Noroeste 0 -- -- 30
2020-08-29 19:00:00 21.9 17 Noroeste 38 Oeste 0 -- -- 27
2020-08-29 18:00:00 22.5 24 Noroeste 52 Noroeste 0 -- -- 28
2020-08-29 17:00:00 21.6 21 Noroeste 39 Noroeste 0 -- -- 29
2020-08-29 16:00:00 22.1 23 Noroeste 39 Noroeste 0 -- -- 29
2020-08-29 15:00:00 20.5 22 Noroeste 39 Noroeste 0 -- -- 32
2020-08-29 14:00:00 20.6 17 Norte 33 Norte 0 -- -- 33
2020-08-29 13:00:00 19.1 19 Norte 34 Norte 0 -- -- 36
2020-08-29 12:00:00 17.7 19 Norte 37 Norte 0 -- -- 37
2020-08-29 11:00:00 16.8 17 Norte 38 Norte 0 -- -- 49
2020-08-29 10:00:00 15.6 19 Norte 36 Norte 0 -- -- 53
2020-08-29 09:00:00 14.3 17 Norte 34 Norte 0 -- -- 54
2020-08-29 08:00:00 12.6 16 Norte 27 Norte 0 -- -- 62
2020-08-29 07:00:00 12.8 15 Norte 36 Norte 0 -- -- 68
2020-08-29 06:00:00 13.4 18 Nordeste 31 Norte 0 -- -- 70
2020-08-29 05:00:00 14.4 16 Norte 28 Norte 0 -- -- 72
2020-08-29 04:00:00 15.8 10 Nordeste 19 Nordeste 0 -- -- 69
2020-08-29 03:00:00 16.8 3 Norte 13 Norte 0 -- -- 32
2020-08-29 02:00:00 17.4 4 Sudoeste 8 Oeste 0 -- -- 29
2020-08-29 01:00:00 19 6 Oeste 8 Oeste 0 -- -- 27
2020-08-29 00:00:00 20.7 5 Oeste 22 Oeste 0 -- -- 24
2020-08-28 23:00:00 22.4 14 Oeste 24 Oeste 0 -- -- 23
2020-08-28 22:00:00 24.1 10 Oeste 28 Oeste 0 -- -- 28
2020-08-28 21:00:00 26.5 15 Oeste 40 Oeste 0 -- -- 25
2020-08-28 20:00:00 29.2 15 Oeste 36 Oeste 0 -- -- 29
2020-08-28 19:00:00 30.5 18 Oeste 45 Oeste 0 -- -- 26
2020-08-28 18:00:00 31.5 17 Oeste 45 Oeste 0 -- -- 29
2020-08-28 17:00:00 32.2 21 Oeste 43 Noroeste 0 -- -- 27
2020-08-28 16:00:00 32.4 19 Oeste 41 Oeste 0 -- -- 26
2020-08-28 15:00:00 32 16 Oeste 33 Sudoeste 0 -- -- 28
2020-08-28 14:00:00 31.3 15 Oeste 29 Noroeste 0 -- -- 27
2020-08-28 13:00:00 30.3 8 Sudoeste 18 Noroeste 0 -- -- 29
2020-08-28 12:00:00 28.8 6 Sudeste 13 Sur 0 -- -- 36
2020-08-28 11:00:00 26.9 3 Noroeste 6 Oeste 0 -- -- 40
2020-08-28 10:00:00 24.7 2 Sudoeste 4 Sudoeste 0 -- -- 48
2020-08-28 09:00:00 19.9 0 Calma 6 Sudeste 0 -- -- 47
2020-08-28 08:00:00 16.7 0 Calma 8 Oeste 0 -- -- 56
2020-08-28 07:00:00 17.2 0 Calma 8 Oeste 0 -- -- 51
2020-08-28 06:00:00 18.2 3 Sur 9 Nordeste 0 -- -- 47
2020-08-28 05:00:00 18.7 4 Nordeste 12 Norte 0 -- -- 47
2020-08-28 04:00:00 20.1 4 Sudoeste 13 Sudeste 0 -- -- 41
2020-08-28 03:00:00 19.5 2 Este 10 Nordeste 0 -- -- 38
2020-08-28 02:00:00 20.5 6 Este 22 Este 0 -- -- 34
2020-08-28 01:00:00 21.9 0 Calma 6 Sudeste 0 -- -- 31
2020-08-28 00:00:00 22.8 3 Sur 8 Nordeste 0 -- -- 30